Time;durP1;ratioP1;P1;durP2;ratioP2;P2;SDS_P1;SDS_P2;PMS_P1;PMS_P2;Temp;Humidity;BMP_temperature;BMP_pressure;BME280_temperature;BME280_humidity;BME280_pressure;Samples;Min_cycle;Max_cycle;Signal;HPM_P1;HPM_P2
2023/06/16 00:01:59;;;;;;;13.15;6.60;;;18.10;99.90;;;;;;4955894;29;20031;-77
2023/06/16 00:04:27;;;;;;;12.38;6.95;;;18.10;99.90;;;;;;4955636;29;20046;-77
2023/06/16 00:06:54;;;;;;;12.20;6.00;;;18.10;99.90;;;;;;4955647;28;20087;-77
2023/06/16 00:09:25;;;;;;;10.50;5.80;;;18.10;99.90;;;;;;4955455;29;20121;-77
2023/06/16 00:11:52;;;;;;;9.80;5.32;;;18.00;99.90;;;;;;4955276;29;20023;-78
2023/06/16 00:14:17;;;;;;;10.07;4.95;;;18.00;99.90;;;;;;4955655;29;20061;-77
2023/06/16 00:16:43;;;;;;;9.77;5.28;;;18.00;99.90;;;;;;4955333;29;20031;-78
2023/06/16 00:19:08;;;;;;;10.40;5.53;;;18.00;99.90;;;;;;4936858;29;20039;-76
2023/06/16 00:21:38;;;;;;;12.30;5.50;;;18.00;99.90;;;;;;4936326;29;20075;-79
2023/06/16 00:24:06;;;;;;;9.45;5.18;;;18.00;99.90;;;;;;4936654;29;20031;-77
2023/06/16 00:26:31;;;;;;;13.48;5.60;;;17.90;99.90;;;;;;4918976;29;20043;-78
2023/06/16 00:28:57;;;;;;;11.02;5.53;;;17.90;99.90;;;;;;4936189;29;20027;-81
2023/06/16 00:31:25;;;;;;;10.38;5.53;;;17.90;99.90;;;;;;4936161;29;20024;-77
2023/06/16 00:33:51;;;;;;;11.77;5.50;;;17.90;99.90;;;;;;4935818;29;20122;-77
2023/06/16 00:36:17;;;;;;;10.93;5.20;;;17.80;99.90;;;;;;4918737;29;20499;-77
2023/06/16 00:38:42;;;;;;;10.93;5.10;;;17.80;99.90;;;;;;4936242;29;20032;-77
2023/06/16 00:41:08;;;;;;;9.43;5.68;;;17.80;99.90;;;;;;4935975;29;20028;-77
2023/06/16 00:43:33;;;;;;;10.93;5.35;;;17.80;99.90;;;;;;4918777;29;20066;-77
2023/06/16 00:45:59;;;;;;;8.95;5.70;;;17.80;99.90;;;;;;4935987;29;20103;-78
2023/06/16 00:48:25;;;;;;;11.30;5.65;;;17.80;99.90;;;;;;4918768;29;20038;-76
2023/06/16 00:50:51;;;;;;;14.43;5.80;;;17.70;99.90;;;;;;4936023;29;20036;-77
2023/06/16 00:53:17;;;;;;;10.55;5.57;;;17.70;99.90;;;;;;4918860;29;20452;-77
2023/06/16 00:55:43;;;;;;;14.20;6.32;;;17.70;99.90;;;;;;4936053;29;20132;-77
2023/06/16 00:58:10;;;;;;;15.45;5.78;;;17.70;99.90;;;;;;4935707;29;20032;-77
2023/06/16 01:00:36;;;;;;;13.65;6.18;;;17.60;99.90;;;;;;4935681;29;20024;-77
2023/06/16 01:03:05;;;;;;;13.45;5.38;;;17.60;99.90;;;;;;4935610;29;20054;-76
2023/06/16 01:05:33;;;;;;;11.32;5.82;;;17.50;99.90;;;;;;4935712;29;20434;-77
2023/06/16 01:08:20;;;;;;;11.20;5.55;;;17.50;99.90;;;;;;4935338;29;20460;-76
2023/06/16 01:11:21;;;;;;;10.63;5.60;;;17.50;99.90;;;;;;4935633;29;20031;-77
2023/06/16 01:14:03;;;;;;;14.27;5.75;;;17.40;99.90;;;;;;4918653;29;20044;-78
2023/06/16 01:16:33;;;;;;;9.40;5.75;;;17.40;99.90;;;;;;4935263;29;20115;-77
2023/06/16 01:19:08;;;;;;;12.55;5.72;;;17.40;99.90;;;;;;4951869;28;20042;-78
2023/06/16 01:21:43;;;;;;;11.30;5.65;;;17.40;99.90;;;;;;4954565;28;20028;-76
2023/06/16 01:24:14;;;;;;;12.20;5.65;;;17.40;99.90;;;;;;4954542;29;20023;-78
2023/06/16 01:26:46;;;;;;;12.50;6.33;;;17.30;99.90;;;;;;4954344;29;20030;-76
2023/06/16 01:29:13;;;;;;;11.27;5.72;;;17.30;99.90;;;;;;4954429;29;20297;-77
2023/06/16 01:31:41;;;;;;;10.63;5.90;;;17.30;99.90;;;;;;4954139;28;20468;-76
2023/06/16 01:34:09;;;;;;;11.15;6.03;;;17.30;99.90;;;;;;4954452;29;20098;-77
2023/06/16 01:36:38;;;;;;;11.38;5.85;;;17.30;99.90;;;;;;4954507;28;20023;-77
2023/06/16 01:39:05;;;;;;;10.55;5.85;;;17.20;99.90;;;;;;4954599;28;20043;-76
2023/06/16 01:41:31;;;;;;;11.13;6.47;;;17.20;99.90;;;;;;4953997;29;20059;-77
2023/06/16 01:43:58;;;;;;;10.68;5.75;;;17.20;99.90;;;;;;4953920;29;20086;-77
2023/06/16 01:46:24;;;;;;;15.50;6.75;;;17.20;99.90;;;;;;4953987;29;20034;-77
2023/06/16 01:48:51;;;;;;;12.55;6.30;;;17.20;99.90;;;;;;4954370;28;20534;-77
2023/06/16 01:51:17;;;;;;;12.73;6.05;;;17.20;99.90;;;;;;4953765;29;20031;-77
2023/06/16 01:53:43;;;;;;;12.63;6.25;;;17.10;99.90;;;;;;4953662;29;20035;-78
2023/06/16 01:56:11;;;;;;;13.35;6.00;;;17.10;99.90;;;;;;4953950;29;20031;-77
2023/06/16 01:58:38;;;;;;;11.48;5.68;;;17.10;99.90;;;;;;4954082;28;20054;-77
2023/06/16 02:01:15;;;;;;;11.07;5.95;;;17.00;99.90;;;;;;4954058;28;20037;-77
2023/06/16 02:03:46;;;;;;;11.38;6.20;;;17.00;99.90;;;;;;4953741;29;20040;-78
2023/06/16 02:06:21;;;;;;;12.57;6.37;;;17.00;99.90;;;;;;4953948;29;20356;-77
2023/06/16 02:08:47;;;;;;;10.60;6.30;;;17.00;99.90;;;;;;4953548;29;20159;-76
2023/06/16 02:11:13;;;;;;;10.40;5.90;;;17.00;99.90;;;;;;4953721;29;20042;-77
2023/06/16 02:13:39;;;;;;;13.10;6.28;;;17.00;99.90;;;;;;4954247;29;20090;-76
2023/06/16 02:16:05;;;;;;;11.55;6.80;;;16.90;99.90;;;;;;4953881;28;20035;-76
2023/06/16 02:18:32;;;;;;;14.15;6.57;;;16.90;99.90;;;;;;4953704;28;20035;-77
2023/06/16 02:20:58;;;;;;;14.63;6.80;;;16.90;99.90;;;;;;4953902;29;20515;-76
2023/06/16 02:23:24;;;;;;;11.20;6.72;;;16.90;99.90;;;;;;4953524;28;20066;-76
2023/06/16 02:25:50;;;;;;;13.82;6.50;;;16.90;99.90;;;;;;4953814;28;20093;-77
2023/06/16 02:28:16;;;;;;;13.85;7.43;;;16.90;99.90;;;;;;4953460;29;20102;-79
2023/06/16 02:30:42;;;;;;;12.68;6.60;;;16.80;99.90;;;;;;4954604;28;20415;-76
2023/06/16 02:33:08;;;;;;;15.13;7.07;;;16.80;99.90;;;;;;4957307;29;20035;-77
2023/06/16 02:35:33;;;;;;;14.00;6.47;;;16.80;99.90;;;;;;4957304;29;20410;-77
2023/06/16 02:38:00;;;;;;;13.70;6.88;;;16.80;99.90;;;;;;4957440;29;20062;-76
2023/06/16 02:40:25;;;;;;;13.60;6.90;;;16.70;99.90;;;;;;4957125;28;20103;-76
2023/06/16 02:42:51;;;;;;;12.52;7.18;;;16.70;99.90;;;;;;4956929;28;20206;-76
2023/06/16 02:45:16;;;;;;;13.98;6.72;;;16.70;99.90;;;;;;4956979;29;20471;-78
2023/06/16 02:47:42;;;;;;;13.90;7.47;;;16.70;99.90;;;;;;4956755;29;20047;-76
2023/06/16 02:50:08;;;;;;;12.60;6.40;;;16.60;99.90;;;;;;4956943;29;20031;-76
2023/06/16 02:52:34;;;;;;;14.70;7.50;;;16.60;99.90;;;;;;4956969;28;20416;-78
2023/06/16 02:55:00;;;;;;;13.25;7.65;;;16.60;99.90;;;;;;4956815;29;20038;-76
2023/06/16 02:57:26;;;;;;;14.07;7.30;;;16.60;99.90;;;;;;4957022;29;20027;-76
2023/06/16 02:59:52;;;;;;;11.85;6.15;;;16.60;99.90;;;;;;4956666;28;20031;-77
2023/06/16 03:02:17;;;;;;;15.88;6.57;;;16.60;99.90;;;;;;4956884;29;20027;-76
2023/06/16 03:04:43;;;;;;;13.27;7.50;;;16.60;99.90;;;;;;4956242;29;20431;-78
2023/06/16 03:07:09;;;;;;;12.07;6.95;;;16.60;99.90;;;;;;4939102;29;20471;-77
2023/06/16 03:09:35;;;;;;;15.88;7.45;;;16.60;99.90;;;;;;4956933;29;20031;-77
2023/06/16 03:12:01;;;;;;;11.63;7.10;;;16.50;99.90;;;;;;4956888;28;20435;-78
2023/06/16 03:14:27;;;;;;;12.45;7.57;;;16.50;99.90;;;;;;4956715;29;20111;-77
2023/06/16 03:16:53;;;;;;;13.40;7.72;;;16.50;99.90;;;;;;4956665;29;20467;-76
2023/06/16 03:19:19;;;;;;;14.15;7.25;;;16.50;99.90;;;;;;4956567;28;20369;-76
2023/06/16 03:21:52;;;;;;;13.85;7.30;;;16.50;99.90;;;;;;4956523;28;20028;-78
2023/06/16 03:24:18;;;;;;;15.55;7.80;;;16.50;99.90;;;;;;4956494;29;20468;-79
2023/06/16 03:26:44;;;;;;;14.77;7.55;;;16.50;99.90;;;;;;4956403;29;20405;-77
2023/06/16 03:29:14;;;;;;;15.75;7.40;;;16.50;99.90;;;;;;4956324;28;20030;-76
2023/06/16 03:31:40;;;;;;;14.13;7.25;;;16.50;99.90;;;;;;4956011;29;20034;-78
2023/06/16 03:34:06;;;;;;;14.88;7.53;;;16.50;99.90;;;;;;4956043;28;20379;-77
2023/06/16 03:36:39;;;;;;;16.20;7.68;;;16.50;99.90;;;;;;4956119;29;20031;-77
2023/06/16 03:39:05;;;;;;;16.08;7.40;;;16.50;99.90;;;;;;4956283;29;20031;-76
2023/06/16 03:41:34;;;;;;;13.25;7.25;;;16.50;99.90;;;;;;4955793;29;20043;-77
2023/06/16 03:44:00;;;;;;;13.23;7.65;;;16.50;99.90;;;;;;4955083;28;20573;-77
2023/06/16 03:46:29;;;;;;;13.15;7.45;;;16.50;99.90;;;;;;4956034;29;20042;-78
2023/06/16 03:48:56;;;;;;;15.05;8.10;;;16.50;99.90;;;;;;4956012;28;20028;-75
2023/06/16 03:51:24;;;;;;;13.27;7.43;;;16.50;99.90;;;;;;4938945;29;20408;-74
2023/06/16 03:53:50;;;;;;;14.10;7.53;;;16.50;99.90;;;;;;4955729;29;20175;-76
2023/06/16 03:56:16;;;;;;;15.50;7.78;;;16.50;99.90;;;;;;4955737;29;20499;-77
2023/06/16 03:58:41;;;;;;;13.90;7.18;;;16.50;99.90;;;;;;4938313;29;20529;-78
2023/06/16 04:01:09;;;;;;;29.73;15.93;;;16.40;99.90;;;;;;4955858;28;20049;-76
2023/06/16 04:03:35;;;;;;;47.75;37.97;;;16.50;99.90;;;;;;4955770;29;20122;-76
2023/06/16 04:06:00;;;;;;;43.50;33.35;;;16.50;99.90;;;;;;4956036;29;20494;-77
2023/06/16 04:08:26;;;;;;;42.83;31.45;;;16.50;99.90;;;;;;4955883;28;20149;-76
2023/06/16 04:10:57;;;;;;;38.00;26.65;;;16.50;99.90;;;;;;4955756;29;20468;-75
2023/06/16 04:13:23;;;;;;;34.00;20.67;;;16.50;99.90;;;;;;4955683;29;20035;-78
2023/06/16 04:15:49;;;;;;;26.75;15.30;;;16.50;99.90;;;;;;4955734;28;20047;-76
2023/06/16 04:18:15;;;;;;;22.15;12.75;;;16.60;99.90;;;;;;4955785;29;20038;-76
2023/06/16 04:20:40;;;;;;;20.27;10.10;;;16.60;99.90;;;;;;4955883;29;20027;-76
2023/06/16 04:23:09;;;;;;;18.15;9.32;;;16.60;99.90;;;;;;4955795;28;20439;-77
2023/06/16 04:25:35;;;;;;;15.52;8.35;;;16.70;99.90;;;;;;4955548;29;20031;-79
2023/06/16 04:28:01;;;;;;;15.35;8.07;;;16.70;99.90;;;;;;4955063;29;20134;-78
2023/06/16 04:30:30;;;;;;;13.43;7.20;;;16.70;99.90;;;;;;4955425;28;20031;-76
2023/06/16 04:32:59;;;;;;;15.43;7.25;;;16.80;99.90;;;;;;4938021;28;20813;-77
2023/06/16 04:35:31;;;;;;;14.55;7.40;;;16.80;99.90;;;;;;4937975;29;20042;-77
2023/06/16 04:37:58;;;;;;;13.68;7.13;;;16.90;99.90;;;;;;4954908;28;20031;-76
2023/06/16 04:40:25;;;;;;;12.32;6.78;;;16.90;99.90;;;;;;4954961;29;20031;-77
2023/06/16 04:42:51;;;;;;;17.15;7.50;;;17.00;99.90;;;;;;4955343;28;20051;-77
2023/06/16 04:45:17;;;;;;;12.50;6.60;;;17.10;99.90;;;;;;4955656;29;20038;-76
2023/06/16 04:47:42;;;;;;;13.80;7.05;;;17.20;99.90;;;;;;4955265;29;20452;-76
2023/06/16 04:50:09;;;;;;;15.13;6.90;;;17.30;99.90;;;;;;4954943;29;20028;-76
2023/06/16 04:52:38;;;;;;;11.88;6.40;;;17.30;99.90;;;;;;4955060;28;20032;-76
2023/06/16 04:55:05;;;;;;;11.13;6.20;;;17.50;99.90;;;;;;4954626;28;20036;-76
2023/06/16 04:57:34;;;;;;;11.20;5.80;;;17.60;99.90;;;;;;4954737;28;20130;-77
2023/06/16 05:00:03;;;;;;;13.20;6.38;;;17.70;99.90;;;;;;4954737;29;20391;-77
2023/06/16 05:02:28;;;;;;;32.50;13.88;;;17.80;99.90;;;;;;4954866;29;20491;-77
2023/06/16 05:04:55;;;;;;;11.40;6.35;;;18.00;99.90;;;;;;4954756;29;20063;-77
2023/06/16 05:07:20;;;;;;;12.50;5.93;;;18.10;99.90;;;;;;4955269;29;20019;-76
2023/06/16 05:09:46;;;;;;;17.98;7.85;;;18.20;99.90;;;;;;4954942;29;20105;-77
2023/06/16 05:12:12;;;;;;;14.95;6.80;;;18.40;99.90;;;;;;4953607;28;20062;-76
2023/06/16 05:14:37;;;;;;;10.10;5.63;;;18.60;99.90;;;;;;4953394;29;20043;-77
2023/06/16 05:17:03;;;;;;;11.43;6.68;;;18.80;99.90;;;;;;4953430;29;20439;-76
2023/06/16 05:19:29;;;;;;;11.02;5.72;;;18.90;99.90;;;;;;4954778;29;20444;-77
2023/06/16 05:21:55;;;;;;;12.80;5.57;;;19.20;99.90;;;;;;4936947;29;20034;-76
2023/06/16 05:24:21;;;;;;;12.90;6.00;;;19.40;99.90;;;;;;4954575;29;20031;-77
2023/06/16 05:26:46;;;;;;;14.52;5.80;;;19.70;99.90;;;;;;4954394;29;20491;-77
2023/06/16 05:29:12;;;;;;;11.15;6.43;;;20.20;99.90;;;;;;4954534;28;20035;-76
2023/06/16 05:31:37;;;;;;;12.18;5.97;;;20.70;99.90;;;;;;4954340;28;20050;-76
2023/06/16 05:34:03;;;;;;;9.02;5.15;;;21.40;99.90;;;;;;4954378;29;20046;-77
2023/06/16 05:36:30;;;;;;;10.63;5.88;;;22.10;99.90;;;;;;4954137;29;20027;-76
2023/06/16 05:38:56;;;;;;;11.27;5.75;;;22.70;99.90;;;;;;4936430;29;20062;-77
2023/06/16 05:41:24;;;;;;;11.30;5.45;;;23.20;99.90;;;;;;4954785;29;20035;-77
2023/06/16 05:43:54;;;;;;;8.57;5.45;;;23.70;98.90;;;;;;4954461;29;20046;-76
2023/06/16 05:46:20;;;;;;;11.90;5.70;;;24.00;98.20;;;;;;4954208;28;20027;-77
2023/06/16 05:48:46;;;;;;;10.23;5.10;;;24.40;97.70;;;;;;4954295;28;20035;-77
2023/06/16 05:51:11;;;;;;;8.70;5.03;;;25.10;96.50;;;;;;4953688;29;20158;-76
2023/06/16 05:53:37;;;;;;;8.65;5.03;;;25.70;95.60;;;;;;4953909;29;20043;-75
2023/06/16 05:56:03;;;;;;;9.10;4.75;;;26.30;94.50;;;;;;4954230;28;20031;-77
2023/06/16 05:58:28;;;;;;;10.35;5.00;;;27.00;93.70;;;;;;4954108;29;20035;-77
2023/06/16 06:00:54;;;;;;;8.25;4.70;;;27.60;92.30;;;;;;4954269;28;20093;-77
2023/06/16 06:03:20;;;;;;;9.05;4.72;;;27.90;91.80;;;;;;4954100;28;20038;-77
2023/06/16 06:05:45;;;;;;;9.15;4.78;;;28.30;90.80;;;;;;4955233;28;20019;-77
2023/06/16 06:08:11;;;;;;;8.02;4.90;;;28.30;90.80;;;;;;4958219;29;20059;-78
2023/06/16 06:10:36;;;;;;;8.73;5.13;;;28.50;90.30;;;;;;4958092;29;20032;-77
2023/06/16 06:13:03;;;;;;;8.25;4.78;;;29.10;90.00;;;;;;4957788;29;20039;-76
2023/06/16 06:15:29;;;;;;;9.43;4.90;;;29.60;88.70;;;;;;4957590;28;20037;-76
2023/06/16 06:17:54;;;;;;;8.88;4.90;;;30.20;87.60;;;;;;4957943;28;20035;-77
2023/06/16 06:20:20;;;;;;;14.70;4.88;;;30.80;86.10;;;;;;4957987;29;20098;-75
2023/06/16 06:22:45;;;;;;;8.20;4.80;;;31.10;84.70;;;;;;4957025;29;20086;-76
2023/06/16 06:25:13;;;;;;;9.10;4.75;;;31.40;83.50;;;;;;4957617;28;20042;-76
2023/06/16 06:27:39;;;;;;;7.38;4.60;;;31.50;83.00;;;;;;4957718;28;20066;-75
2023/06/16 06:30:06;;;;;;;8.55;4.50;;;31.80;82.20;;;;;;4957855;29;20031;-77
2023/06/16 06:32:31;;;;;;;9.45;4.50;;;32.10;81.70;;;;;;4957596;28;20118;-76
2023/06/16 06:34:57;;;;;;;7.88;4.43;;;32.20;80.70;;;;;;4957527;28;20114;-77
2023/06/16 06:37:29;;;;;;;8.55;4.53;;;32.10;80.50;;;;;;4939913;29;20090;-77
2023/06/16 06:39:55;;;;;;;6.97;5.07;;;32.00;80.60;;;;;;4956921;28;20472;-77
2023/06/16 06:42:21;;;;;;;8.30;4.10;;;32.30;80.10;;;;;;4956973;28;20440;-76
2023/06/16 06:44:46;;;;;;;9.05;4.28;;;32.60;79.40;;;;;;4957446;29;20118;-76
2023/06/16 06:47:12;;;;;;;7.07;4.18;;;32.90;78.60;;;;;;4957201;29;20587;-76
2023/06/16 06:49:38;;;;;;;7.40;4.10;;;33.30;78.00;;;;;;4957230;28;20035;-76
2023/06/16 06:52:04;;;;;;;9.27;4.50;;;33.50;77.20;;;;;;4952221;29;20035;-77
2023/06/16 06:54:29;;;;;;;9.35;4.05;;;33.80;77.10;;;;;;4944093;29;20047;-74
2023/06/16 06:56:55;;;;;;;6.95;3.72;;;34.30;76.20;;;;;;4957237;29;20056;-74
2023/06/16 06:59:20;;;;;;;12.77;4.30;;;34.50;75.30;;;;;;4957447;29;20023;-74
2023/06/16 07:01:46;;;;;;;7.32;4.10;;;34.80;74.60;;;;;;4956759;29;20028;-76
2023/06/16 07:04:11;;;;;;;7.45;3.75;;;35.20;73.60;;;;;;4956540;29;20045;-76
2023/06/16 07:06:37;;;;;;;6.50;3.60;;;35.70;72.60;;;;;;4956724;29;20038;-76
2023/06/16 07:09:03;;;;;;;6.80;3.70;;;36.10;71.90;;;;;;4956726;29;20031;-76
2023/06/16 07:11:28;;;;;;;6.22;3.70;;;36.40;71.30;;;;;;4957027;29;20035;-76
2023/06/16 07:13:54;;;;;;;9.38;3.60;;;36.90;69.70;;;;;;4956638;29;20051;-76
2023/06/16 07:16:19;;;;;;;8.85;3.88;;;37.30;68.90;;;;;;4957074;28;20081;-75
2023/06/16 07:18:45;;;;;;;6.13;3.38;;;37.80;67.40;;;;;;4955097;29;20061;-75
2023/06/16 07:21:11;;;;;;;4.97;3.40;;;38.10;65.30;;;;;;4956768;29;20035;-75
2023/06/16 07:23:36;;;;;;;5.95;3.53;;;38.10;65.80;;;;;;4957177;29;20031;-75
2023/06/16 07:26:02;;;;;;;5.40;3.33;;;37.80;65.00;;;;;;4956782;29;20451;-75
2023/06/16 07:28:28;;;;;;;7.45;3.53;;;37.50;63.70;;;;;;4956853;29;20031;-75
2023/06/16 07:30:54;;;;;;;6.10;3.45;;;37.00;64.50;;;;;;4956745;29;20360;-75
2023/06/16 07:33:21;;;;;;;7.45;3.75;;;36.40;64.30;;;;;;4956496;29;20031;-75
2023/06/16 07:35:47;;;;;;;8.38;3.80;;;36.30;65.00;;;;;;4956422;29;20424;-74
2023/06/16 07:38:13;;;;;;;8.23;3.85;;;36.20;64.70;;;;;;4939066;29;20035;-75
2023/06/16 07:40:38;;;;;;;8.82;4.00;;;36.40;64.30;;;;;;4956028;29;20053;-74
2023/06/16 07:43:04;;;;;;;7.25;3.60;;;36.70;64.20;;;;;;4956081;29;20133;-74
2023/06/16 07:45:34;;;;;;;7.72;3.50;;;37.10;63.70;;;;;;4956727;29;20030;-74
2023/06/16 07:48:00;;;;;;;6.90;3.25;;;37.30;61.50;;;;;;4955624;29;20035;-74
2023/06/16 07:50:26;;;;;;;8.35;3.22;;;37.40;61.60;;;;;;4956704;29;20035;-74
2023/06/16 07:52:51;;;;;;;5.35;3.20;;;37.40;59.90;;;;;;4956276;29;20037;-75
2023/06/16 07:55:17;;;;;;;7.20;2.97;;;37.10;60.20;;;;;;4954484;29;20019;-73
2023/06/16 07:57:43;;;;;;;4.05;3.05;;;36.80;60.50;;;;;;4955877;29;20027;-73
2023/06/16 08:00:14;;;;;;;9.60;5.10;;;36.30;60.00;;;;;;4948716;29;20771;-74
2023/06/16 08:02:41;;;;;;;5.07;3.28;;;35.60;60.90;;;;;;4936458;29;20028;-73
2023/06/16 08:05:07;;;;;;;5.65;3.20;;;35.00;60.50;;;;;;4936659;29;20091;-74
2023/06/16 08:07:34;;;;;;;6.30;3.20;;;34.50;61.30;;;;;;4936784;29;20040;-74
2023/06/16 08:10:00;;;;;;;6.10;3.08;;;34.10;61.50;;;;;;4936661;29;20057;-74
2023/06/16 08:12:26;;;;;;;6.40;3.50;;;33.90;61.90;;;;;;4936508;29;20421;-74
2023/06/16 08:14:51;;;;;;;5.50;3.40;;;34.00;62.50;;;;;;4936582;29;20099;-75
2023/06/16 08:17:17;;;;;;;8.82;3.60;;;34.30;62.90;;;;;;4936719;29;20552;-74
2023/06/16 08:19:43;;;;;;;8.50;3.80;;;34.70;63.10;;;;;;4936703;29;20039;-74
2023/06/16 08:22:11;;;;;;;5.82;3.60;;;35.30;62.10;;;;;;4936440;29;20098;-75
2023/06/16 08:24:36;;;;;;;4.25;2.90;;;36.00;60.80;;;;;;4936658;29;20507;-73
2023/06/16 08:27:02;;;;;;;5.55;2.78;;;36.70;59.50;;;;;;4936062;29;20027;-75
2023/06/16 08:29:30;;;;;;;4.55;3.10;;;37.50;59.10;;;;;;4935972;28;20380;-74
2023/06/16 08:31:56;;;;;;;4.60;2.92;;;38.50;58.30;;;;;;4936058;29;20047;-74
2023/06/16 08:34:21;;;;;;;4.43;3.03;;;39.40;57.30;;;;;;4936151;29;20047;-75
2023/06/16 08:36:47;;;;;;;3.58;2.80;;;40.30;53.70;;;;;;4936079;29;20038;-75
2023/06/16 08:39:13;;;;;;;4.05;2.95;;;40.90;52.30;;;;;;4935766;29;20400;-74
2023/06/16 08:41:39;;;;;;;6.82;2.90;;;41.30;51.60;;;;;;4936387;29;20040;-74
2023/06/16 08:44:08;;;;;;;6.63;3.00;;;41.70;51.80;;;;;;4936279;29;20067;-75
2023/06/16 08:46:34;;;;;;;3.90;3.08;;;42.40;52.10;;;;;;4936037;29;20051;-74
2023/06/16 08:48:59;;;;;;;4.65;3.08;;;43.10;51.10;;;;;;4936170;29;20035;-74
2023/06/16 08:51:27;;;;;;;3.78;2.90;;;43.70;49.60;;;;;;4936127;29;20055;-74
2023/06/16 08:54:00;;;;;;;7.57;2.92;;;43.50;48.00;;;;;;4936022;29;20134;-73
2023/06/16 08:56:29;;;;;;;5.95;4.25;;;42.90;48.30;;;;;;4935801;29;20505;-74
2023/06/16 08:58:57;;;;;;;5.63;3.25;;;42.60;49.00;;;;;;4935342;29;20111;-74
2023/06/16 09:01:24;;;;;;;4.88;3.03;;;42.80;47.00;;;;;;4935773;29;20071;-75
2023/06/16 09:03:50;;;;;;;6.78;2.90;;;42.80;46.70;;;;;;4935716;29;20127;-74
2023/06/16 09:06:16;;;;;;;5.13;3.17;;;42.90;46.40;;;;;;4935593;29;20075;-75
2023/06/16 09:08:42;;;;;;;5.63;2.67;;;42.90;46.60;;;;;;4935442;29;20431;-75
2023/06/16 09:11:07;;;;;;;4.20;3.22;;;42.90;45.90;;;;;;4935396;29;20111;-74
2023/06/16 09:13:33;;;;;;;7.30;3.33;;;43.10;45.50;;;;;;4935387;29;20488;-75
2023/06/16 09:15:59;;;;;;;6.07;3.25;;;43.40;45.50;;;;;;4935589;29;20070;-75
2023/06/16 09:18:37;;;;;;;5.30;2.95;;;43.80;45.40;;;;;;4934291;29;20503;-74
2023/06/16 09:21:05;;;;;;;5.82;3.08;;;43.90;45.60;;;;;;4935638;29;20036;-74
2023/06/16 09:23:31;;;;;;;7.35;3.22;;;43.60;44.80;;;;;;4935577;29;20043;-75
2023/06/16 09:25:57;;;;;;;4.55;3.10;;;43.60;45.10;;;;;;4935731;29;20372;-74
2023/06/16 09:28:37;;;;;;;5.03;2.90;;;43.80;45.00;;;;;;4935304;29;20058;-73
2023/06/16 09:31:05;;;;;;;9.67;2.73;;;44.20;44.80;;;;;;4935357;29;20115;-74
2023/06/16 09:33:31;;;;;;;7.90;3.05;;;44.20;44.60;;;;;;4934847;29;20047;-74
2023/06/16 09:35:58;;;;;;;6.80;3.35;;;44.50;45.10;;;;;;4934518;29;20071;-74
2023/06/16 09:38:23;;;;;;;6.15;3.30;;;45.10;45.50;;;;;;4935368;29;20032;-74
2023/06/16 09:40:49;;;;;;;4.05;2.90;;;45.40;45.00;;;;;;4933378;29;20110;-74
2023/06/16 09:43:15;;;;;;;5.05;3.20;;;45.60;44.20;;;;;;4938862;29;20161;-75
2023/06/16 09:45:41;;;;;;;4.60;2.92;;;45.70;44.40;;;;;;4936983;29;20031;-75
2023/06/16 09:48:10;;;;;;;5.13;2.60;;;45.80;44.10;;;;;;4954380;29;20102;-75
2023/06/16 09:50:37;;;;;;;4.85;3.10;;;45.80;43.40;;;;;;4953418;29;20039;-75
2023/06/16 09:53:07;;;;;;;5.40;3.25;;;45.60;43.40;;;;;;4953898;29;20491;-73
2023/06/16 09:55:41;;;;;;;4.63;2.43;;;45.50;43.10;;;;;;4936643;29;20027;-75
2023/06/16 09:58:06;;;;;;;4.60;2.75;;;45.40;42.70;;;;;;4954013;29;20035;-75
2023/06/16 10:00:33;;;;;;;5.57;3.08;;;45.30;42.80;;;;;;4954193;29;20463;-73
2023/06/16 10:02:59;;;;;;;5.95;2.70;;;45.20;43.10;;;;;;4953621;29;20411;-74
2023/06/16 10:05:25;;;;;;;7.25;2.95;;;45.30;42.70;;;;;;4954091;29;20023;-74
2023/06/16 10:08:04;;;;;;;4.93;3.00;;;45.10;42.20;;;;;;4954041;29;20038;-73
2023/06/16 10:10:32;;;;;;;5.78;2.60;;;44.90;41.70;;;;;;4954000;29;20138;-74
2023/06/16 10:13:02;;;;;;;3.63;2.92;;;44.60;41.50;;;;;;4954150;29;20175;-74
2023/06/16 10:15:31;;;;;;;4.28;2.90;;;44.50;41.60;;;;;;4954402;29;20027;-74
2023/06/16 10:18:05;;;;;;;4.47;2.65;;;44.40;41.70;;;;;;4936585;29;20039;-75
2023/06/16 10:20:32;;;;;;;5.72;3.00;;;44.40;41.40;;;;;;4953628;29;20036;-75
2023/06/16 10:23:00;;;;;;;3.50;2.80;;;44.20;41.20;;;;;;4953806;29;20383;-77
2023/06/16 10:25:28;;;;;;;4.80;2.85;;;44.20;41.30;;;;;;4954193;29;20122;-74
2023/06/16 10:27:55;;;;;;;7.32;2.60;;;44.30;40.80;;;;;;4953892;29;20032;-75
2023/06/16 10:30:23;;;;;;;4.93;2.72;;;44.40;40.00;;;;;;4954106;29;20034;-75
2023/06/16 10:32:49;;;;;;;5.90;3.00;;;44.60;40.20;;;;;;4953728;29;20035;-74
2023/06/16 10:35:17;;;;;;;10.02;3.38;;;44.40;40.40;;;;;;4953398;29;20024;-74
2023/06/16 10:37:47;;;;;;;6.43;2.85;;;44.00;41.00;;;;;;4954140;28;20464;-75
2023/06/16 10:40:14;;;;;;;19.73;4.28;;;43.70;40.30;;;;;;4953992;29;20545;-75
2023/06/16 10:42:40;;;;;;;4.38;3.03;;;43.70;39.90;;;;;;4953155;29;20059;-73
2023/06/16 10:45:26;;;;;;;4.68;2.78;;;44.00;39.90;;;;;;4953222;29;20478;-76
2023/06/16 10:48:05;;;;;;;5.05;2.80;;;44.40;39.30;;;;;;4953403;28;20031;-76
2023/06/16 10:50:39;;;;;;;4.97;2.78;;;44.70;39.00;;;;;;4954116;29;20024;-73
2023/06/16 10:53:12;;;;;;;5.93;3.10;;;45.00;38.80;;;;;;4956412;28;20034;-74
2023/06/16 10:55:41;;;;;;;4.43;2.72;;;45.10;38.60;;;;;;4957424;28;20114;-74
2023/06/16 10:58:14;;;;;;;4.63;2.80;;;45.20;38.80;;;;;;4956477;29;20106;-73
2023/06/16 11:00:44;;;;;;;7.45;3.08;;;45.00;39.10;;;;;;4957284;29;20122;-75
2023/06/16 11:03:10;;;;;;;5.25;2.63;;;44.80;39.00;;;;;;4957148;29;20117;-74
2023/06/16 11:05:40;;;;;;;4.18;2.80;;;44.60;39.60;;;;;;4957250;29;20174;-74
2023/06/16 11:08:08;;;;;;;5.90;2.70;;;44.60;39.50;;;;;;4957142;29;20062;-74
2023/06/16 11:11:09;;;;;;;5.90;2.80;;;44.60;39.30;;;;;;4956339;29;20633;-74
2023/06/16 11:13:38;;;;;;;5.18;3.03;;;44.60;39.40;;;;;;4859391;29;20078;-74
2023/06/16 11:16:04;;;;;;;3.90;2.78;;;44.50;39.30;;;;;;4938574;29;20043;-75
2023/06/16 11:18:33;;;;;;;5.72;2.90;;;44.20;39.40;;;;;;4955963;29;20031;-75
2023/06/16 11:21:01;;;;;;;7.80;3.28;;;43.70;39.60;;;;;;4957020;29;20035;-74
2023/06/16 11:23:27;;;;;;;4.47;2.83;;;43.40;40.10;;;;;;4956879;29;20079;-76
2023/06/16 11:26:01;;;;;;;7.13;3.10;;;43.40;40.10;;;;;;4956446;29;20046;-75
2023/06/16 11:28:27;;;;;;;5.18;3.28;;;43.20;39.90;;;;;;4956590;29;20058;-75
2023/06/16 11:30:53;;;;;;;5.55;2.72;;;43.20;40.20;;;;;;4938717;29;20024;-74
2023/06/16 11:33:21;;;;;;;3.95;2.70;;;43.20;40.00;;;;;;4956671;29;20044;-73
2023/06/16 11:35:47;;;;;;;7.35;2.85;;;43.00;40.00;;;;;;4956523;29;20031;-75
2023/06/16 11:38:21;;;;;;;7.50;3.22;;;43.30;40.50;;;;;;4956328;29;20035;-75
2023/06/16 11:40:48;;;;;;;6.65;3.28;;;43.50;40.70;;;;;;4955974;29;20114;-74
2023/06/16 11:43:14;;;;;;;4.38;3.25;;;43.40;40.10;;;;;;4956417;29;20068;-74
2023/06/16 11:45:39;;;;;;;5.40;2.90;;;43.30;40.30;;;;;;4955826;29;20037;-75
2023/06/16 11:48:07;;;;;;;8.00;3.03;;;43.40;40.10;;;;;;4956131;29;20031;-75
2023/06/16 11:50:33;;;;;;;3.58;2.70;;;43.40;39.80;;;;;;4954682;29;20066;-74
2023/06/16 11:52:59;;;;;;;7.70;2.80;;;43.50;39.90;;;;;;4956557;29;20463;-75
2023/06/16 11:55:25;;;;;;;5.00;2.70;;;43.70;40.20;;;;;;4938280;29;20023;-75
2023/06/16 11:57:51;;;;;;;4.40;2.80;;;43.80;40.30;;;;;;4956318;28;20063;-76
2023/06/16 12:00:18;;;;;;;5.50;2.65;;;43.90;40.30;;;;;;4956001;29;20448;-75
2023/06/16 12:02:47;;;;;;;6.68;2.88;;;43.70;40.60;;;;;;4955097;28;20380;-76
2023/06/16 12:05:21;;;;;;;5.80;3.20;;;43.70;40.60;;;;;;4954189;29;20033;-74
2023/06/16 12:07:46;;;;;;;6.80;2.97;;;43.70;40.20;;;;;;4954836;29;20034;-75
2023/06/16 12:10:13;;;;;;;5.00;2.80;;;43.20;40.30;;;;;;4956194;29;20058;-75
2023/06/16 12:12:42;;;;;;;2.95;2.58;;;42.80;40.00;;;;;;4956073;29;20154;-74
2023/06/16 12:15:08;;;;;;;5.32;2.67;;;42.50;40.20;;;;;;4955586;29;20051;-75
2023/06/16 12:17:33;;;;;;;5.95;2.88;;;42.30;40.40;;;;;;4938500;29;20493;-74
2023/06/16 12:20:04;;;;;;;6.82;3.15;;;42.50;40.60;;;;;;4955739;29;20031;-75
2023/06/16 12:22:38;;;;;;;4.57;2.47;;;42.60;40.30;;;;;;4956125;29;20082;-73
2023/06/16 12:25:09;;;;;;;6.32;2.90;;;42.60;39.40;;;;;;4955705;29;20459;-74
2023/06/16 12:27:35;;;;;;;4.00;2.80;;;42.60;39.90;;;;;;4955013;29;20027;-74
2023/06/16 12:30:03;;;;;;;3.88;2.65;;;42.60;40.00;;;;;;4955704;29;20038;-74
2023/06/16 12:32:33;;;;;;;4.32;2.83;;;42.60;39.70;;;;;;4955567;29;20035;-76
2023/06/16 12:34:59;;;;;;;8.77;2.25;;;42.40;40.10;;;;;;4955651;29;20039;-76
2023/06/16 12:37:26;;;;;;;5.95;2.40;;;42.10;40.30;;;;;;4955823;29;20028;-76
2023/06/16 12:40:00;;;;;;;5.82;2.78;;;41.60;40.30;;;;;;4955007;29;20082;-74
2023/06/16 12:42:31;;;;;;;4.63;2.38;;;41.10;40.40;;;;;;4955212;29;20538;-73
2023/06/16 12:44:59;;;;;;;5.85;2.83;;;40.70;40.50;;;;;;4955405;29;20046;-74